BTK7559 WIHH-WAHS
Flight info
| Callsign | BTK7559 |
|---|---|
| Flight time | 0h 38m |
| Altitude | 29000 |
| Route | CA W45 PIALA |
| Aircraft | A320/M-SDE3FGHIRWY/LB1 |
Departure
| Time | 2026-05-01 08:35 |
|---|---|
| Airport | Halim Perdanakusuma International Airport (WIHH) |
Arrival
| Time | 2026-05-01 09:14 |
|---|---|
| Airport | Jenderal Ahmad Yani Airport (WAHS) |
| Time | Latitude | Longitude | Altitude | Speed | Heading |
|---|---|---|---|---|---|
| 2026-05-01 08:14 | -6.26566 | 106.88702 | 95 ft | 0 kts | 336° |
| 2026-05-01 08:22 | -6.26569 | 106.88704 | 95 ft | 3 kts | 336° |
| 2026-05-01 08:23 | -6.26594 | 106.88713 | 95 ft | 4 kts | 348° |
| 2026-05-01 08:23 | -6.26619 | 106.88714 | 95 ft | 4 kts | 30° |
| 2026-05-01 08:23 | -6.26628 | 106.88706 | 93 ft | 0 kts | 65° |
| 2026-05-01 08:30 | -6.26626 | 106.88711 | 94 ft | 4 kts | 65° |
| 2026-05-01 08:30 | -6.26613 | 106.88738 | 95 ft | 5 kts | 65° |
| 2026-05-01 08:31 | -6.26594 | 106.88783 | 95 ft | 7 kts | 76° |
| 2026-05-01 08:31 | -6.26615 | 106.88814 | 95 ft | 6 kts | 147° |
| 2026-05-01 08:31 | -6.26685 | 106.88847 | 95 ft | 13 kts | 156° |
| 2026-05-01 08:31 | -6.26767 | 106.88858 | 95 ft | 12 kts | 210° |
| 2026-05-01 08:32 | -6.26820 | 106.88765 | 94 ft | 17 kts | 245° |
| 2026-05-01 08:32 | -6.26874 | 106.88649 | 95 ft | 19 kts | 244° |
| 2026-05-01 08:32 | -6.26935 | 106.88522 | 92 ft | 21 kts | 244° |
| 2026-05-01 08:32 | -6.27001 | 106.88380 | 93 ft | 23 kts | 245° |
| 2026-05-01 08:33 | -6.27068 | 106.88231 | 94 ft | 24 kts | 246° |
| 2026-05-01 08:33 | -6.27139 | 106.88075 | 94 ft | 25 kts | 245° |
| 2026-05-01 08:33 | -6.27154 | 106.87951 | 95 ft | 14 kts | 275° |
| 2026-05-01 08:33 | -6.27184 | 106.87885 | 95 ft | 9 kts | 205° |
| 2026-05-01 08:34 | -6.27218 | 106.87906 | 98 ft | 5 kts | 81° |
| 2026-05-01 08:34 | -6.27212 | 106.87918 | 96 ft | 0 kts | 63° |
| 2026-05-01 08:34 | -6.27207 | 106.87929 | 96 ft | 11 kts | 63° |
| 2026-05-01 08:35 | -6.27051 | 106.88265 | 93 ft | 90 kts | 66° |
| 2026-05-01 08:35 | -6.26709 | 106.89009 | 97 ft | 145 kts | 65° |
| 2026-05-01 08:35 | -6.26244 | 106.90063 | 381 ft | 168 kts | 67° |
| 2026-05-01 08:35 | -6.25777 | 106.91114 | 1105 ft | 166 kts | 69° |
| 2026-05-01 08:36 | -6.25657 | 106.92257 | 1787 ft | 165 kts | 107° |
| 2026-05-01 08:36 | -6.26194 | 106.93311 | 2153 ft | 179 kts | 122° |
| 2026-05-01 08:36 | -6.26882 | 106.94441 | 2477 ft | 204 kts | 121° |
| 2026-05-01 08:36 | -6.27668 | 106.95741 | 2930 ft | 227 kts | 123° |
| 2026-05-01 08:37 | -6.28528 | 106.97137 | 3350 ft | 249 kts | 122° |
| 2026-05-01 08:37 | -6.29446 | 106.98680 | 3905 ft | 263 kts | 120° |
| 2026-05-01 08:37 | -6.30376 | 107.00283 | 4704 ft | 269 kts | 120° |
| 2026-05-01 08:37 | -6.31333 | 107.01938 | 5645 ft | 272 kts | 120° |
| 2026-05-01 08:38 | -6.32272 | 107.03554 | 6697 ft | 274 kts | 120° |
| 2026-05-01 08:38 | -6.33144 | 107.05287 | 7990 ft | 276 kts | 113° |
| 2026-05-01 08:38 | -6.33693 | 107.07158 | 8708 ft | 284 kts | 105° |
| 2026-05-01 08:38 | -6.34088 | 107.09103 | 9397 ft | 290 kts | 102° |
| 2026-05-01 08:39 | -6.34450 | 107.11137 | 10113 ft | 294 kts | 101° |
| 2026-05-01 08:39 | -6.34825 | 107.13198 | 10419 ft | 317 kts | 102° |
| 2026-05-01 08:39 | -6.35258 | 107.15451 | 10616 ft | 339 kts | 102° |
| 2026-05-01 08:39 | -6.35741 | 107.17810 | 11074 ft | 349 kts | 103° |
| 2026-05-01 08:40 | -6.36795 | 107.22641 | 12344 ft | 357 kts | 103° |
| 2026-05-01 08:40 | -6.37345 | 107.25087 | 12979 ft | 360 kts | 103° |
| 2026-05-01 08:40 | -6.37903 | 107.27556 | 13607 ft | 363 kts | 103° |
| 2026-05-01 08:41 | -6.38462 | 107.30042 | 14221 ft | 366 kts | 103° |
| 2026-05-01 08:41 | -6.39022 | 107.32553 | 14826 ft | 369 kts | 102° |
| 2026-05-01 08:41 | -6.39584 | 107.35084 | 15410 ft | 372 kts | 102° |
| 2026-05-01 08:41 | -6.40149 | 107.37633 | 16013 ft | 375 kts | 102° |
| 2026-05-01 08:42 | -6.40718 | 107.40213 | 16601 ft | 381 kts | 102° |
| 2026-05-01 08:42 | -6.41298 | 107.42834 | 17269 ft | 386 kts | 102° |
| 2026-05-01 08:42 | -6.41882 | 107.45459 | 17918 ft | 385 kts | 101° |
| 2026-05-01 08:42 | -6.42470 | 107.48088 | 18465 ft | 387 kts | 101° |
| 2026-05-01 08:43 | -6.43063 | 107.50730 | 18949 ft | 389 kts | 101° |
| 2026-05-01 08:43 | -6.43658 | 107.53393 | 19412 ft | 392 kts | 101° |
| 2026-05-01 08:43 | -6.44256 | 107.56072 | 19861 ft | 395 kts | 101° |
| 2026-05-01 08:43 | -6.44854 | 107.58774 | 20313 ft | 397 kts | 101° |
| 2026-05-01 08:44 | -6.45455 | 107.61496 | 20762 ft | 399 kts | 101° |
| 2026-05-01 08:44 | -6.46062 | 107.64236 | 21215 ft | 402 kts | 101° |
| 2026-05-01 08:44 | -6.46674 | 107.66991 | 21674 ft | 405 kts | 102° |
| 2026-05-01 08:44 | -6.47289 | 107.69761 | 22117 ft | 408 kts | 102° |
| 2026-05-01 08:45 | -6.47912 | 107.72558 | 22549 ft | 411 kts | 102° |
| 2026-05-01 08:45 | -6.48538 | 107.75362 | 22961 ft | 413 kts | 102° |
| 2026-05-01 08:45 | -6.49167 | 107.78189 | 23325 ft | 415 kts | 102° |
| 2026-05-01 08:45 | -6.49796 | 107.81020 | 23672 ft | 417 kts | 102° |
| 2026-05-01 08:46 | -6.50430 | 107.83881 | 24017 ft | 419 kts | 102° |
| 2026-05-01 08:46 | -6.51065 | 107.86751 | 24354 ft | 422 kts | 102° |
| 2026-05-01 08:46 | -6.51692 | 107.89579 | 25300 ft | 404 kts | 102° |
| 2026-05-01 08:46 | -6.52290 | 107.92269 | 26458 ft | 384 kts | 102° |
| 2026-05-01 08:47 | -6.52855 | 107.94819 | 27601 ft | 364 kts | 102° |
| 2026-05-01 08:47 | -6.53397 | 107.97268 | 28358 ft | 357 kts | 102° |
| 2026-05-01 08:47 | -6.53938 | 107.99728 | 28515 ft | 365 kts | 102° |
| 2026-05-01 08:47 | -6.54494 | 108.02249 | 28654 ft | 374 kts | 102° |
| 2026-05-01 08:48 | -6.55064 | 108.04829 | 28799 ft | 382 kts | 102° |
| 2026-05-01 08:48 | -6.55649 | 108.07481 | 28835 ft | 394 kts | 102° |
| 2026-05-01 08:48 | -6.56252 | 108.10208 | 28834 ft | 406 kts | 102° |
| 2026-05-01 08:48 | -6.56871 | 108.13012 | 28833 ft | 416 kts | 102° |
| 2026-05-01 08:49 | -6.58148 | 108.18832 | 28836 ft | 435 kts | 102° |
| 2026-05-01 08:49 | -6.59475 | 108.24831 | 28831 ft | 442 kts | 102° |
| 2026-05-01 08:50 | -6.60823 | 108.30887 | 28823 ft | 444 kts | 102° |
| 2026-05-01 08:50 | -6.61937 | 108.35913 | 28821 ft | 443 kts | 102° |
| 2026-05-01 08:51 | -6.63485 | 108.42951 | 28820 ft | 443 kts | 102° |
| 2026-05-01 08:51 | -6.64597 | 108.48018 | 28816 ft | 443 kts | 102° |
| 2026-05-01 08:52 | -6.66143 | 108.55044 | 28812 ft | 442 kts | 102° |
| 2026-05-01 08:52 | -6.67261 | 108.60101 | 28809 ft | 442 kts | 102° |
| 2026-05-01 08:53 | -6.68596 | 108.66147 | 28800 ft | 442 kts | 102° |
| 2026-05-01 08:53 | -6.69919 | 108.72185 | 28797 ft | 442 kts | 102° |
| 2026-05-01 08:54 | -6.71244 | 108.78217 | 28796 ft | 442 kts | 102° |
| 2026-05-01 08:54 | -6.72577 | 108.84254 | 28665 ft | 443 kts | 102° |
| 2026-05-01 08:55 | -6.73245 | 108.87283 | 28410 ft | 444 kts | 102° |
| 2026-05-01 08:55 | -6.73910 | 108.90314 | 28166 ft | 443 kts | 102° |
| 2026-05-01 08:55 | -6.74568 | 108.93328 | 27716 ft | 439 kts | 102° |
| 2026-05-01 08:55 | -6.75223 | 108.96321 | 27086 ft | 436 kts | 102° |
| 2026-05-01 08:56 | -6.75872 | 108.99286 | 26476 ft | 432 kts | 102° |
| 2026-05-01 08:56 | -6.76517 | 109.02220 | 25867 ft | 428 kts | 102° |
| 2026-05-01 08:56 | -6.77161 | 109.05131 | 25254 ft | 424 kts | 102° |
| 2026-05-01 08:56 | -6.77795 | 109.08012 | 24670 ft | 419 kts | 102° |
| 2026-05-01 08:57 | -6.78418 | 109.10865 | 24084 ft | 415 kts | 102° |
| 2026-05-01 08:57 | -6.79029 | 109.13684 | 23509 ft | 411 kts | 101° |
| 2026-05-01 08:57 | -6.79550 | 109.16495 | 22964 ft | 406 kts | 98° |
| 2026-05-01 08:57 | -6.79968 | 109.19282 | 22431 ft | 401 kts | 97° |
| 2026-05-01 08:58 | -6.80329 | 109.22057 | 21933 ft | 398 kts | 96° |
| 2026-05-01 08:58 | -6.80665 | 109.24804 | 21446 ft | 393 kts | 96° |
| 2026-05-01 08:58 | -6.81005 | 109.27483 | 20972 ft | 388 kts | 96° |
| 2026-05-01 08:58 | -6.81360 | 109.30161 | 20495 ft | 385 kts | 97° |
| 2026-05-01 08:59 | -6.81722 | 109.32814 | 20006 ft | 381 kts | 97° |
| 2026-05-01 08:59 | -6.82090 | 109.35437 | 19538 ft | 377 kts | 97° |
| 2026-05-01 08:59 | -6.82459 | 109.38031 | 19037 ft | 373 kts | 97° |
| 2026-05-01 08:59 | -6.82826 | 109.40607 | 18548 ft | 370 kts | 97° |
| 2026-05-01 09:00 | -6.83187 | 109.43163 | 18055 ft | 368 kts | 97° |
| 2026-05-01 09:00 | -6.83550 | 109.45735 | 17548 ft | 365 kts | 97° |
| 2026-05-01 09:00 | -6.83903 | 109.48226 | 17060 ft | 364 kts | 97° |
| 2026-05-01 09:00 | -6.84260 | 109.50771 | 16547 ft | 371 kts | 97° |
| 2026-05-01 09:01 | -6.84622 | 109.53385 | 16006 ft | 372 kts | 97° |
| 2026-05-01 09:01 | -6.84983 | 109.55951 | 15497 ft | 369 kts | 97° |
| 2026-05-01 09:01 | -6.85336 | 109.58469 | 14997 ft | 368 kts | 97° |
| 2026-05-01 09:01 | -6.85692 | 109.61008 | 14481 ft | 365 kts | 97° |
| 2026-05-01 09:02 | -6.86048 | 109.63547 | 13964 ft | 363 kts | 98° |
| 2026-05-01 09:02 | -6.86401 | 109.66051 | 13443 ft | 360 kts | 98° |
| 2026-05-01 09:02 | -6.86748 | 109.68507 | 12930 ft | 358 kts | 98° |
| 2026-05-01 09:02 | -6.87101 | 109.71005 | 12402 ft | 355 kts | 98° |
| 2026-05-01 09:03 | -6.87443 | 109.73426 | 11895 ft | 352 kts | 98° |
| 2026-05-01 09:03 | -6.87781 | 109.75852 | 11374 ft | 349 kts | 98° |
| 2026-05-01 09:03 | -6.88117 | 109.78261 | 10854 ft | 348 kts | 97° |
| 2026-05-01 09:03 | -6.88457 | 109.80696 | 10437 ft | 343 kts | 98° |
| 2026-05-01 09:04 | -6.88784 | 109.83008 | 10182 ft | 334 kts | 98° |
| 2026-05-01 09:04 | -6.89108 | 109.85309 | 9936 ft | 330 kts | 99° |
| 2026-05-01 09:04 | -6.89408 | 109.87619 | 9808 ft | 326 kts | 95° |
| 2026-05-01 09:04 | -6.89262 | 109.89857 | 9673 ft | 317 kts | 80° |
| 2026-05-01 09:05 | -6.88850 | 109.92003 | 9550 ft | 308 kts | 80° |
| 2026-05-01 09:05 | -6.88458 | 109.94078 | 9222 ft | 297 kts | 81° |
| 2026-05-01 09:05 | -6.88083 | 109.96108 | 8558 ft | 295 kts | 81° |
| 2026-05-01 09:05 | -6.87713 | 109.98116 | 7987 ft | 289 kts | 81° |
| 2026-05-01 09:06 | -6.87352 | 110.00073 | 7458 ft | 288 kts | 81° |
| 2026-05-01 09:06 | -6.86978 | 110.02082 | 6925 ft | 290 kts | 81° |
| 2026-05-01 09:06 | -6.86613 | 110.04042 | 6484 ft | 289 kts | 81° |
| 2026-05-01 09:06 | -6.86251 | 110.06009 | 6017 ft | 282 kts | 81° |
| 2026-05-01 09:07 | -6.85899 | 110.07927 | 5388 ft | 279 kts | 81° |
| 2026-05-01 09:07 | -6.85549 | 110.09826 | 4864 ft | 274 kts | 81° |
| 2026-05-01 09:07 | -6.85189 | 110.11730 | 4371 ft | 282 kts | 81° |
| 2026-05-01 09:07 | -6.84818 | 110.13670 | 4199 ft | 281 kts | 80° |
| 2026-05-01 09:08 | -6.84467 | 110.15601 | 3997 ft | 273 kts | 82° |
| 2026-05-01 09:08 | -6.84148 | 110.17410 | 3993 ft | 249 kts | 77° |
| 2026-05-01 09:08 | -6.83842 | 110.19041 | 3994 ft | 227 kts | 80° |
| 2026-05-01 09:08 | -6.83770 | 110.20559 | 3823 ft | 211 kts | 100° |
| 2026-05-01 09:09 | -6.84195 | 110.21924 | 3633 ft | 197 kts | 118° |
| 2026-05-01 09:09 | -6.84986 | 110.23008 | 3392 ft | 189 kts | 130° |
| 2026-05-01 09:09 | -6.85820 | 110.23995 | 3144 ft | 185 kts | 130° |
| 2026-05-01 09:09 | -6.86656 | 110.24986 | 2895 ft | 181 kts | 130° |
| 2026-05-01 09:10 | -6.87449 | 110.25925 | 2665 ft | 174 kts | 130° |
| 2026-05-01 09:10 | -6.88201 | 110.26818 | 2463 ft | 160 kts | 130° |
| 2026-05-01 09:10 | -6.88904 | 110.27649 | 2260 ft | 150 kts | 130° |
| 2026-05-01 09:10 | -6.89557 | 110.28421 | 2053 ft | 144 kts | 129° |
| 2026-05-01 09:11 | -6.90202 | 110.29186 | 1855 ft | 143 kts | 129° |
| 2026-05-01 09:11 | -6.90843 | 110.29945 | 1666 ft | 141 kts | 129° |
| 2026-05-01 09:11 | -6.91475 | 110.30694 | 1467 ft | 140 kts | 129° |
| 2026-05-01 09:11 | -6.92105 | 110.31440 | 1290 ft | 139 kts | 128° |
| 2026-05-01 09:12 | -6.92728 | 110.32178 | 1102 ft | 138 kts | 128° |
| 2026-05-01 09:12 | -6.93349 | 110.32913 | 927 ft | 138 kts | 128° |
| 2026-05-01 09:12 | -6.93969 | 110.33649 | 737 ft | 138 kts | 128° |
| 2026-05-01 09:12 | -6.94590 | 110.34384 | 559 ft | 138 kts | 128° |
| 2026-05-01 09:13 | -6.95214 | 110.35121 | 394 ft | 139 kts | 128° |
| 2026-05-01 09:13 | -6.95829 | 110.35869 | 222 ft | 139 kts | 127° |
| 2026-05-01 09:13 | -6.96462 | 110.36611 | 31 ft | 139 kts | 129° |
| 2026-05-01 09:13 | -6.97027 | 110.37294 | 5 ft | 110 kts | 131° |
| 2026-05-01 09:14 | -6.97415 | 110.37745 | 6 ft | 59 kts | 130° |
| 2026-05-01 09:14 | -6.97577 | 110.37942 | 6 ft | 30 kts | 130° |
| 2026-05-01 09:14 | -6.97677 | 110.38068 | 6 ft | 14 kts | 117° |
| 2026-05-01 09:14 | -6.97718 | 110.38102 | 6 ft | 3 kts | 221° |
| 2026-05-01 09:15 | -6.97708 | 110.38083 | 7 ft | 5 kts | 307° |
| 2026-05-01 09:15 | -6.97674 | 110.38046 | 6 ft | 9 kts | 312° |
| 2026-05-01 09:15 | -6.97634 | 110.38001 | 8 ft | 8 kts | 311° |
| 2026-05-01 09:15 | -6.97582 | 110.37938 | 6 ft | 21 kts | 308° |
| 2026-05-01 09:16 | -6.97484 | 110.37820 | 7 ft | 23 kts | 311° |
| 2026-05-01 09:16 | -6.97371 | 110.37688 | 5 ft | 28 kts | 310° |
| 2026-05-01 09:16 | -6.97239 | 110.37531 | 5 ft | 30 kts | 310° |
| 2026-05-01 09:17 | -6.97033 | 110.37472 | 14 ft | 14 kts | 38° |
| 2026-05-01 09:17 | -6.96965 | 110.37530 | 18 ft | 12 kts | 39° |
| 2026-05-01 09:17 | -6.96861 | 110.37509 | 18 ft | 8 kts | 309° |
| 2026-05-01 09:18 | -6.96816 | 110.37454 | 18 ft | 10 kts | 310° |
| 2026-05-01 09:18 | -6.96742 | 110.37430 | 19 ft | 4 kts | 36° |
| 2026-05-01 09:19 | -6.96716 | 110.37453 | 19 ft | 1 kts | 40° |
| 2026-05-01 09:19 | -6.96711 | 110.37457 | 19 ft | 0 kts | 40° |
| 2026-05-01 09:19 | -6.96710 | 110.37458 | 19 ft | 0 kts | 40° |